Time;durP1;ratioP1;P1;durP2;ratioP2;P2;SDS_P1;SDS_P2;PMS_P1;PMS_P2;Temp;Humidity;BMP_temperature;BMP_pressure;BME280_temperature;BME280_humidity;BME280_pressure;Samples;Min_cycle;Max_cycle;Signal;HPM_P1;HPM_P2
2022/12/19 00:00:26;;;;;;;3.52;3.32;;;;;;;-0.12;63.69;102214.90;442743;119;922525;-81
2022/12/19 00:01:33;;;;;;;3.79;3.52;;;;;;;-0.11;64.32;102221.98;443085;119;922571;-81
2022/12/19 00:02:36;;;;;;;3.45;3.22;;;;;;;-0.09;64.26;102222.72;442677;119;922875;-82
2022/12/19 00:03:40;;;;;;;3.30;3.10;;;;;;;-0.11;63.96;102220.13;442967;118;922465;-81
2022/12/19 00:04:43;;;;;;;3.61;3.31;;;;;;;-0.10;63.75;102221.85;442613;119;922617;-82
2022/12/19 00:05:46;;;;;;;3.69;3.49;;;;;;;-0.12;63.74;102221.13;443064;119;922537;-82
2022/12/19 00:06:50;;;;;;;3.26;3.06;;;;;;;-0.15;63.71;102215.09;443003;119;922309;-79
2022/12/19 00:07:53;;;;;;;3.84;3.64;;;;;;;-0.18;63.94;102226.91;443030;119;930449;-80
2022/12/19 00:08:59;;;;;;;3.75;3.55;;;;;;;-0.20;64.03;102230.64;442969;117;923149;-80
2022/12/19 00:10:02;;;;;;;3.64;3.36;;;;;;;-0.23;64.06;102226.36;435591;122;922910;-83
2022/12/19 00:11:05;;;;;;;3.35;3.12;;;;;;;-0.24;64.24;102226.46;435117;122;923094;-81
2022/12/19 00:12:08;;;;;;;3.92;3.52;;;;;;;-0.25;64.32;102232.78;448554;116;922439;-80
2022/12/19 00:13:14;;;;;;;3.73;3.53;;;;;;;-0.25;64.45;102230.09;449038;116;922517;-81
2022/12/19 00:14:17;;;;;;;3.59;3.39;;;;;;;-0.25;64.58;102230.09;451945;114;922851;-82
2022/12/19 00:15:20;;;;;;;3.56;3.36;;;;;;;-0.23;64.73;102234.41;457517;116;922569;-80
2022/12/19 00:16:26;;;;;;;3.45;3.25;;;;;;;-0.21;64.68;102236.95;457461;116;923351;-83
2022/12/19 00:17:29;;;;;;;3.74;3.53;;;;;;;-0.21;64.79;102237.81;457349;116;922963;-82
2022/12/19 00:18:32;;;;;;;3.47;3.27;;;;;;;-0.22;64.81;102240.63;457441;114;922846;-81
2022/12/19 00:19:35;;;;;;;3.96;3.34;;;;;;;-0.24;65.02;102239.86;457313;114;922589;-80
2022/12/19 00:20:39;;;;;;;3.67;3.44;;;;;;;-0.25;65.38;102243.50;457419;115;922843;-81
2022/12/19 00:21:42;;;;;;;3.59;3.39;;;;;;;-0.25;65.70;102238.14;457503;116;922452;-81
2022/12/19 00:22:46;;;;;;;3.54;3.34;;;;;;;-0.26;65.98;102239.95;457446;115;930475;-81
2022/12/19 00:23:49;;;;;;;4.18;3.92;;;;;;;-0.24;66.16;102239.86;457452;114;922675;-80
2022/12/19 00:24:52;;;;;;;3.33;3.13;;;;;;;-0.23;66.24;102239.77;457258;116;922501;-83
2022/12/19 00:26:11;;;;;;;4.32;4.03;;;;;;;-0.20;66.55;102238.68;457422;116;930462;-80
2022/12/19 00:27:14;;;;;;;3.91;3.67;;;;;;;-0.18;66.47;102247.48;457301;116;930541;-80
2022/12/19 00:28:17;;;;;;;3.99;3.64;;;;;;;-0.18;66.59;102247.48;457508;114;922613;-81
2022/12/19 00:29:22;;;;;;;3.65;3.45;;;;;;;-0.19;66.70;102243.95;457177;114;922567;-83
2022/12/19 00:30:26;;;;;;;3.38;3.18;;;;;;;-0.20;66.58;102252.08;450443;117;922556;-82
2022/12/19 00:31:33;;;;;;;4.17;3.87;;;;;;;-0.21;66.68;102251.22;450802;116;923570;-81
2022/12/19 00:32:36;;;;;;;3.71;3.51;;;;;;;-0.22;66.58;102249.50;457329;116;922542;-81
2022/12/19 00:33:40;;;;;;;3.58;3.37;;;;;;;-0.24;66.72;102253.27;457409;114;922941;-81
2022/12/19 00:34:45;;;;;;;3.46;3.16;;;;;;;-0.27;66.64;102246.27;457082;115;925414;-79
2022/12/19 00:35:48;;;;;;;3.29;3.06;;;;;;;-0.29;66.61;102245.54;457525;116;922478;-79
2022/12/19 00:36:51;;;;;;;3.31;3.11;;;;;;;-0.32;66.44;102245.73;457408;116;923358;-81
2022/12/19 00:37:55;;;;;;;3.62;3.34;;;;;;;-0.36;66.33;102241.55;457494;116;922529;-80
2022/12/19 00:38:59;;;;;;;3.79;3.59;;;;;;;-0.39;66.37;102251.63;457341;114;922599;-82
2022/12/19 00:40:03;;;;;;;3.44;3.24;;;;;;;-0.42;66.43;102245.50;449414;118;930506;-82
2022/12/19 00:41:15;;;;;;;3.78;3.58;;;;;;;-0.43;66.39;102249.14;449515;118;930508;-81
2022/12/19 00:42:18;;;;;;;3.62;3.42;;;;;;;-0.43;65.89;102248.28;449203;117;923279;-81
2022/12/19 00:43:21;;;;;;;3.84;3.52;;;;;;;-0.45;65.67;102252.90;449642;116;923160;-81
2022/12/19 00:44:24;;;;;;;3.36;3.16;;;;;;;-0.50;65.12;102255.86;453158;114;922614;-80
2022/12/19 00:45:28;;;;;;;3.31;3.11;;;;;;;-0.51;64.89;102255.98;457418;116;922500;-81
2022/12/19 00:46:34;;;;;;;3.89;3.66;;;;;;;-0.53;64.90;102253.41;457399;116;922558;-82
2022/12/19 00:47:37;;;;;;;3.95;3.65;;;;;;;-0.55;64.39;102260.67;457264;116;930546;-80
2022/12/19 00:48:41;;;;;;;3.17;2.98;;;;;;;-0.55;65.37;102252.63;457451;114;930583;-81
2022/12/19 00:49:44;;;;;;;3.58;3.37;;;;;;;-0.57;65.17;102256.39;457326;114;922419;-80
2022/12/19 00:51:01;;;;;;;3.41;3.21;;;;;;;-0.59;64.97;102261.84;457353;116;922535;-81
2022/12/19 00:52:04;;;;;;;3.37;3.17;;;;;;;-0.60;65.64;102262.80;457342;116;922564;-81
2022/12/19 00:53:07;;;;;;;3.52;3.32;;;;;;;-0.59;65.65;102263.66;457441;114;922464;-81
2022/12/19 00:54:10;;;;;;;3.42;3.22;;;;;;;-0.59;65.60;102264.52;457342;116;922879;-82
2022/12/19 00:55:14;;;;;;;3.41;3.21;;;;;;;-0.59;64.99;102274.37;455597;114;922517;-80
2022/12/19 00:56:22;;;;;;;3.20;3.00;;;;;;;-0.60;64.71;102261.94;448819;118;922504;-80
2022/12/19 00:57:25;;;;;;;3.42;3.22;;;;;;;-0.61;64.69;102265.60;449101;118;923080;-83
2022/12/19 00:58:28;;;;;;;3.41;3.18;;;;;;;-0.60;64.68;102268.16;449255;116;923017;-81
2022/12/19 00:59:33;;;;;;;3.27;3.07;;;;;;;-0.59;65.94;102272.56;453964;116;922936;-80
2022/12/19 01:00:37;;;;;;;3.26;3.06;;;;;;;-0.58;68.62;102273.42;457504;115;922723;-82
2022/12/19 01:01:40;;;;;;;3.35;3.15;;;;;;;-0.57;69.61;102272.47;457537;116;922606;-81
2022/12/19 01:02:44;;;;;;;3.46;3.16;;;;;;;-0.56;69.33;102266.16;457355;116;922554;-81
2022/12/19 01:03:48;;;;;;;3.22;3.02;;;;;;;-0.55;68.68;102266.03;457333;114;930550;-81
2022/12/19 01:04:53;;;;;;;3.36;3.16;;;;;;;-0.54;68.49;102269.57;454675;116;922541;-81
2022/12/19 01:05:56;;;;;;;3.54;3.34;;;;;;;-0.54;68.67;102270.44;457481;116;922866;-79
2022/12/19 01:07:00;;;;;;;3.49;3.29;;;;;;;-0.52;68.34;102264.98;457445;116;922499;-82
2022/12/19 01:08:06;;;;;;;3.41;3.19;;;;;;;-0.52;68.24;102264.98;457322;116;922563;-80
2022/12/19 01:09:11;;;;;;;3.54;3.34;;;;;;;-0.54;68.40;102262.39;457366;115;922896;-82
2022/12/19 01:10:14;;;;;;;3.64;3.42;;;;;;;-0.52;68.37;102267.66;457422;116;922493;-81
2022/12/19 01:12:44;;;;;;;3.52;3.22;;;;;;;-0.52;68.79;102262.30;457534;116;922534;-81
2022/12/19 01:13:44;;;;;;;3.86;3.61;;;;;;;-0.52;68.84;102270.34;457237;114;922924;-81
2022/12/19 01:14:47;;;;;;;3.49;3.29;;;;;;;-0.52;68.12;102276.56;457253;116;922512;-81
2022/12/19 01:15:50;;;;;;;3.78;3.54;;;;;;;-0.51;67.67;102267.56;457505;116;922514;-80
2022/12/19 01:16:53;;;;;;;3.41;3.21;;;;;;;-0.52;68.80;102273.87;457518;116;922617;-82
2022/12/19 01:17:56;;;;;;;3.09;2.89;;;;;;;-0.53;69.23;102264.13;457509;116;922459;-81
2022/12/19 01:19:00;;;;;;;3.44;3.21;;;;;;;-0.53;68.96;102264.13;457312;114;922446;-81
2022/12/19 01:20:06;;;;;;;3.22;3.02;;;;;;;-0.50;68.36;102255.03;449373;118;922655;-82
2022/12/19 01:21:10;;;;;;;3.39;3.19;;;;;;;-0.50;68.30;102261.22;449528;118;922601;-80
2022/12/19 01:22:13;;;;;;;3.69;3.39;;;;;;;-0.49;67.74;102265.62;449447;118;922622;-82
2022/12/19 01:23:17;;;;;;;3.12;2.94;;;;;;;-0.47;66.57;102265.53;449489;116;922546;-81
2022/12/19 01:24:20;;;;;;;3.42;3.19;;;;;;;-0.48;65.76;102279.88;453084;116;930934;-80
2022/12/19 01:25:24;;;;;;;3.64;3.43;;;;;;;-0.51;65.57;102264.89;457348;115;922461;-81
2022/12/19 01:26:27;;;;;;;3.62;3.41;;;;;;;-0.52;65.36;102271.20;457549;115;922616;-82
2022/12/19 01:27:31;;;;;;;3.19;2.99;;;;;;;-0.53;65.30;102266.80;457540;116;922588;-81
2022/12/19 01:28:34;;;;;;;3.82;3.62;;;;;;;-0.55;65.41;102263.34;457537;114;922594;-81
2022/12/19 01:29:37;;;;;;;3.74;3.44;;;;;;;-0.54;65.50;102270.44;451593;114;922690;-81
2022/12/19 01:30:42;;;;;;;3.22;3.02;;;;;;;-0.54;65.12;102274.92;445870;118;922612;-82
2022/12/19 01:31:45;;;;;;;3.47;3.27;;;;;;;-0.53;65.00;102274.84;449485;118;922576;-81
2022/12/19 01:32:48;;;;;;;3.79;3.49;;;;;;;-0.51;64.53;102280.96;449569;118;922498;-81
2022/12/19 01:33:52;;;;;;;3.81;3.52;;;;;;;-0.51;64.53;102280.96;449475;116;922649;-81
2022/12/19 01:34:57;;;;;;;3.56;3.36;;;;;;;-0.49;64.51;102279.02;445365;119;930500;-82
2022/12/19 01:36:06;;;;;;;3.87;3.64;;;;;;;-0.48;64.09;102279.88;446484;116;922672;-82
2022/12/19 01:37:06;;;;;;;3.48;3.26;;;;;;;-0.50;63.98;102282.66;450108;117;923088;-80
2022/12/19 01:38:12;;;;;;;3.47;3.27;;;;;;;-0.49;64.32;102278.16;451020;116;922634;-80
2022/12/19 01:39:16;;;;;;;3.46;3.26;;;;;;;-0.50;64.26;102282.66;458244;111;921951;-80
2022/12/19 01:40:20;;;;;;;4.13;3.89;;;;;;;-0.51;64.25;102282.78;458837;111;922148;-80
2022/12/19 01:41:24;;;;;;;3.41;3.21;;;;;;;-0.51;64.26;102286.32;458705;111;922082;-80
2022/12/19 01:42:31;;;;;;;3.92;3.72;;;;;;;-0.48;64.37;102282.56;458696;112;922570;-80
2022/12/19 01:43:58;;;;;;;3.52;3.32;;;;;;;-0.45;64.25;102285.92;458541;111;930670;-81
2022/12/19 01:45:16;;;;;;;4.15;3.83;;;;;;;-0.43;64.13;102286.66;450743;114;923031;-80
2022/12/19 01:46:26;;;;;;;3.65;3.45;;;;;;;-0.39;64.04;102289.14;450751;117;922229;-79
2022/12/19 01:47:33;;;;;;;4.08;3.81;;;;;;;-0.39;63.95;102295.37;450715;118;922125;-81
2022/12/19 01:48:40;;;;;;;3.83;3.61;;;;;;;-0.39;64.27;102295.37;450657;116;922171;-80
2022/12/19 01:49:44;;;;;;;3.55;3.35;;;;;;;-0.37;64.79;102295.23;456892;112;922121;-81
2022/12/19 01:50:59;;;;;;;3.69;3.49;;;;;;;-0.37;65.17;102292.56;458693;116;922195;-80
2022/12/19 01:52:08;;;;;;;3.97;3.72;;;;;;;-0.35;65.28;102296.88;457848;115;922170;-80
2022/12/19 01:53:13;;;;;;;4.37;4.07;;;;;;;-0.32;64.83;102298.47;457543;112;922117;-80
2022/12/19 01:54:35;;;;;;;3.69;3.49;;;;;;;-0.34;64.43;102301.27;458081;114;922187;-81
2022/12/19 01:55:40;;;;;;;3.85;3.62;;;;;;;-0.33;64.29;102302.14;463613;113;922127;-81
2022/12/19 01:56:47;;;;;;;4.06;3.76;;;;;;;-0.35;64.13;102296.01;467728;109;921916;-80
2022/12/19 01:57:51;;;;;;;4.29;3.99;;;;;;;-0.36;64.20;102303.19;467675;113;922417;-80
2022/12/19 01:58:57;;;;;;;4.27;3.97;;;;;;;-0.36;64.08;102300.51;467660;113;922630;-82
2022/12/19 02:00:03;;;;;;;4.52;4.22;;;;;;;-0.37;63.76;102303.28;449980;117;922005;-81
2022/12/19 02:01:08;;;;;;;4.16;3.87;;;;;;;-0.38;63.93;102309.59;449112;117;922617;-80
2022/12/19 02:02:30;;;;;;;4.07;3.77;;;;;;;-0.40;63.59;102299.00;449941;117;922717;-81
2022/12/19 02:03:35;;;;;;;3.88;3.63;;;;;;;-0.38;63.57;102309.59;449664;116;922900;-81
2022/12/19 02:04:40;;;;;;;3.72;3.52;;;;;;;-0.41;63.58;102299.95;455216;114;922470;-82
2022/12/19 02:05:44;;;;;;;3.76;3.56;;;;;;;-0.43;63.99;102305.41;457525;115;922559;-82
2022/12/19 02:06:50;;;;;;;4.69;4.31;;;;;;;-0.43;64.17;102315.27;457542;115;922503;-81
2022/12/19 02:07:53;;;;;;;4.18;3.88;;;;;;;-0.41;64.72;102310.67;450460;117;922955;-81
2022/12/19 02:08:56;;;;;;;4.41;4.11;;;;;;;-0.38;64.98;102312.27;450780;114;922380;-81
2022/12/19 02:09:59;;;;;;;4.11;3.82;;;;;;;-0.38;64.48;102313.14;449785;118;922676;-81
2022/12/19 02:11:04;;;;;;;4.71;4.37;;;;;;;-0.39;64.12;102311.45;449133;117;922495;-81
2022/12/19 02:12:08;;;;;;;4.03;3.76;;;;;;;-0.38;64.08;102312.27;449721;117;923071;-82
2022/12/19 02:13:13;;;;;;;4.66;4.36;;;;;;;-0.37;64.07;102308.64;449631;116;922590;-82
2022/12/19 02:14:16;;;;;;;4.72;4.31;;;;;;;-0.36;63.91;102315.72;451728;114;922470;-81
2022/12/19 02:15:20;;;;;;;4.46;4.06;;;;;;;-0.35;63.87;102312.95;457502;116;923258;-82
2022/12/19 02:16:27;;;;;;;4.51;4.21;;;;;;;-0.34;63.88;102313.81;457472;115;922480;-81
2022/12/19 02:17:55;;;;;;;4.07;3.77;;;;;;;-0.33;63.70;102321.73;457257;116;930648;-81
2022/12/19 02:19:27;;;;;;;3.88;3.68;;;;;;;-0.32;63.69;102327.95;457093;114;922547;-81
2022/12/19 02:20:54;;;;;;;4.41;4.07;;;;;;;-0.36;63.69;102324.63;444962;117;922671;-82
2022/12/19 02:22:11;;;;;;;4.93;4.54;;;;;;;-0.37;63.90;102322.04;449473;118;922480;-82
2022/12/19 02:23:37;;;;;;;4.13;3.91;;;;;;;-0.27;63.77;102315.09;493818;107;922894;-80
2022/12/19 02:24:52;;;;;;;4.03;3.73;;;;;;;-0.39;63.67;102323.98;476937;109;922856;-81
2022/12/19 02:26:08;;;;;;;4.66;4.28;;;;;;;-0.42;65.30;102325.03;465625;114;922629;-79
2022/12/19 02:27:21;;;;;;;4.81;4.51;;;;;;;-0.45;66.75;102328.79;465626;114;922791;-80
2022/12/19 02:29:00;;;;;;;4.31;4.01;;;;;;;-0.38;67.15;102328.35;473315;110;946752;-80
2022/12/19 02:30:09;;;;;;;4.31;3.99;;;;;;;-0.51;67.84;102334.55;442848;119;922915;-81
2022/12/19 02:31:33;;;;;;;4.54;4.22;;;;;;;-0.55;68.24;102334.86;443247;118;923071;-81
2022/12/19 02:32:46;;;;;;;4.66;4.34;;;;;;;-0.56;68.52;102333.12;442866;119;922594;-81
2022/12/19 02:34:04;;;;;;;4.58;4.28;;;;;;;-0.56;68.65;102335.81;443965;117;922620;-81
2022/12/19 02:35:46;;;;;;;4.80;4.50;;;;;;;-0.54;68.70;102341.91;449636;118;922572;-79
2022/12/19 02:36:54;;;;;;;4.42;4.11;;;;;;;-0.52;68.56;102340.00;449382;118;922458;-80
2022/12/19 02:38:11;;;;;;;4.16;3.93;;;;;;;-0.49;68.41;102337.10;449640;118;922676;-82
2022/12/19 02:39:32;;;;;;;4.79;4.49;;;;;;;-0.46;68.25;102339.59;452211;116;922637;-82
2022/12/19 02:40:46;;;;;;;4.40;4.13;;;;;;;-0.44;67.69;102346.55;456969;116;922474;-80
2022/12/19 02:41:56;;;;;;;4.35;4.05;;;;;;;-0.43;67.29;102342.92;457014;115;922514;-81
2022/12/19 02:43:02;;;;;;;5.14;4.84;;;;;;;-0.43;67.02;102344.74;457435;116;922832;-81
2022/12/19 02:44:05;;;;;;;4.65;4.34;;;;;;;-0.43;67.27;102339.38;457265;115;922543;-81
2022/12/19 02:45:13;;;;;;;5.35;4.77;;;;;;;-0.43;67.50;102342.06;457478;116;922439;-81
2022/12/19 02:46:18;;;;;;;4.73;4.33;;;;;;;-0.43;67.17;102353.64;449048;117;930504;-81
2022/12/19 02:47:22;;;;;;;4.88;4.58;;;;;;;-0.42;67.10;102346.47;450843;116;922570;-80
2022/12/19 02:48:25;;;;;;;4.73;4.42;;;;;;;-0.43;67.11;102350.96;457614;116;922617;-81
2022/12/19 02:49:29;;;;;;;4.25;3.96;;;;;;;-0.44;67.66;102357.27;450328;116;922595;-80
2022/12/19 02:50:36;;;;;;;4.60;4.30;;;;;;;-0.45;68.21;102358.27;450952;116;923115;-80
2022/12/19 02:51:39;;;;;;;4.41;4.11;;;;;;;-0.44;68.71;102357.27;457430;116;923299;-82
2022/12/19 02:52:46;;;;;;;4.35;4.05;;;;;;;-0.43;68.51;102355.45;457556;115;923109;-82
2022/12/19 02:53:49;;;;;;;4.49;4.19;;;;;;;-0.43;68.62;102356.32;457423;114;922512;-80
2022/12/19 02:54:55;;;;;;;4.59;4.29;;;;;;;-0.42;68.64;102360.73;457385;115;922334;-81
2022/12/19 02:56:14;;;;;;;4.11;3.81;;;;;;;-0.39;68.72;102357.00;466463;113;922508;-81
2022/12/19 02:57:51;;;;;;;4.58;4.28;;;;;;;-0.37;68.23;102364.91;466829;113;922497;-80
2022/12/19 02:59:03;;;;;;;4.88;4.58;;;;;;;-0.37;68.19;102359.55;449260;118;922734;-81
2022/12/19 03:00:17;;;;;;;4.69;4.31;;;;;;;-0.27;67.93;102353.48;477170;110;946958;-81
2022/12/19 03:01:44;;;;;;;4.81;4.49;;;;;;;-0.39;67.87;102365.04;465508;114;922462;-80
2022/12/19 03:02:51;;;;;;;4.56;4.26;;;;;;;-0.39;67.83;102364.17;465406;113;922938;-80
2022/12/19 03:04:05;;;;;;;4.68;4.38;;;;;;;-0.38;67.61;102365.87;469597;112;922883;-81
2022/12/19 03:05:27;;;;;;;4.54;4.24;;;;;;;-0.39;67.62;102361.50;462650;114;922906;-82
2022/12/19 03:06:34;;;;;;;4.15;3.85;;;;;;;-0.40;67.40;102367.81;462267;114;922558;-81
2022/12/19 03:07:42;;;;;;;4.46;4.08;;;;;;;-0.43;67.28;102367.04;463113;114;922873;-81
2022/12/19 03:08:51;;;;;;;4.72;4.42;;;;;;;-0.43;67.17;102368.86;462948;114;922542;-81
2022/12/19 03:10:03;;;;;;;4.67;4.37;;;;;;;-0.43;67.30;102368.86;462921;112;922559;-81
2022/12/19 03:11:09;;;;;;;4.69;4.32;;;;;;;-0.43;67.26;102372.40;463178;114;922611;-80
2022/12/19 03:12:19;;;;;;;4.43;4.13;;;;;;;-0.40;67.47;102362.45;463190;114;922938;-81
2022/12/19 03:13:35;;;;;;;4.45;4.15;;;;;;;-0.36;67.46;102374.68;463041;114;923209;-81
2022/12/19 03:14:38;;;;;;;4.46;4.16;;;;;;;-0.33;67.23;102377.18;468017;112;922654;-81
2022/12/19 03:15:43;;;;;;;5.09;4.79;;;;;;;-0.31;66.91;102376.09;471495;112;922476;-81
2022/12/19 03:16:46;;;;;;;4.64;4.31;;;;;;;-0.31;66.95;102378.78;471550;112;922491;-80
2022/12/19 03:17:50;;;;;;;4.66;4.29;;;;;;;-0.31;66.83;102377.91;471611;112;922830;-80
2022/12/19 03:18:54;;;;;;;4.10;3.81;;;;;;;-0.30;66.86;102376.96;471694;112;930389;-80
2022/12/19 03:19:57;;;;;;;4.62;4.28;;;;;;;-0.28;66.91;102380.41;463923;112;922507;-80
2022/12/19 03:21:10;;;;;;;4.71;4.37;;;;;;;-0.26;66.75;102373.11;463455;114;922915;-82
2022/12/19 03:22:13;;;;;;;4.43;4.13;;;;;;;-0.26;66.54;102376.65;462185;114;922535;-81
2022/12/19 03:23:17;;;;;;;4.09;3.79;;;;;;;-0.27;66.58;102374.92;463542;112;922346;-81
2022/12/19 03:24:20;;;;;;;4.64;4.34;;;;;;;-0.25;66.53;102374.84;463570;112;922370;-79
2022/12/19 03:25:25;;;;;;;4.33;4.03;;;;;;;-0.24;66.43;102376.56;463349;114;922415;-80
2022/12/19 03:26:31;;;;;;;3.94;3.64;;;;;;;-0.24;66.25;102380.10;463121;114;930449;-81
2022/12/19 03:27:38;;;;;;;4.18;3.88;;;;;;;-0.25;66.21;102380.20;462251;114;922938;-80
2022/12/19 03:28:47;;;;;;;4.08;3.78;;;;;;;-0.26;65.96;102378.47;463180;114;922934;-80
2022/12/19 03:29:57;;;;;;;4.38;4.08;;;;;;;-0.27;65.75;102376.74;463663;112;923101;-79
2022/12/19 03:31:01;;;;;;;4.49;4.19;;;;;;;-0.28;65.75;102381.27;462898;114;922590;-82
2022/12/19 03:32:08;;;;;;;4.46;4.16;;;;;;;-0.28;65.89;102388.45;463198;114;922543;-80
2022/12/19 03:33:14;;;;;;;4.14;3.88;;;;;;;-0.27;65.86;102384.78;463174;114;922687;-81
2022/12/19 03:34:42;;;;;;;4.47;4.07;;;;;;;-0.26;65.60;102391.88;463664;112;922606;-81
2022/12/19 03:35:47;;;;;;;4.34;4.04;;;;;;;-0.28;65.58;102388.45;463170;114;922598;-81
2022/12/19 03:36:54;;;;;;;4.08;3.78;;;;;;;-0.29;65.51;102384.91;463209;114;922426;-81
2022/12/19 03:38:00;;;;;;;4.34;4.03;;;;;;;-0.29;65.48;102395.63;463166;114;923034;-81
2022/12/19 03:39:07;;;;;;;4.68;4.27;;;;;;;-0.28;65.62;102392.00;463204;112;922556;-79
2022/12/19 03:40:15;;;;;;;3.84;3.58;;;;;;;-0.26;65.60;102392.73;463169;114;922979;-80
2022/12/19 03:43:07;;;;;;;4.11;3.82;;;;;;;-0.22;65.76;102398.77;463083;114;922541;-81
2022/12/19 03:43:49;;;;;;;4.35;4.05;;;;;;;-0.14;65.60;102393.75;463158;114;922581;-81
2022/12/19 03:44:56;;;;;;;4.15;3.81;;;;;;;-0.12;65.59;102387.34;463478;112;922539;-82
2022/12/19 03:46:12;;;;;;;4.37;4.01;;;;;;;-0.09;65.56;102392.48;462710;114;922745;-81
2022/12/19 03:47:25;;;;;;;4.29;3.98;;;;;;;-0.07;65.44;102387.89;462707;114;922544;-81
2022/12/19 03:48:44;;;;;;;3.98;3.73;;;;;;;-0.06;65.25;102391.44;462716;114;922563;-80
2022/12/19 03:49:48;;;;;;;4.13;3.83;;;;;;;-0.06;65.26;102403.02;469356;112;923230;-82
2022/12/19 03:51:16;;;;;;;4.12;3.82;;;;;;;-0.03;65.20;102402.80;471544;112;922737;-80
2022/12/19 03:52:56;;;;;;;4.30;3.99;;;;;;;-0.01;65.06;102400.03;470871;112;923060;-81
2022/12/19 03:54:19;;;;;;;4.07;3.72;;;;;;;0.08;64.77;102399.41;475849;110;946917;-79
2022/12/19 03:55:25;;;;;;;3.88;3.58;;;;;;;-0.07;64.67;102403.98;456974;114;922557;-80
2022/12/19 03:56:38;;;;;;;4.07;3.77;;;;;;;-0.07;64.73;102408.48;456932;115;922565;-80
2022/12/19 03:57:57;;;;;;;4.03;3.73;;;;;;;-0.08;64.71;102407.61;457446;116;922571;-81
2022/12/19 03:59:03;;;;;;;4.11;3.81;;;;;;;-0.07;64.72;102409.34;457234;113;922523;-82
2022/12/19 04:00:16;;;;;;;3.86;3.56;;;;;;;-0.09;64.36;102405.89;449437;117;923052;-82
2022/12/19 04:01:20;;;;;;;4.17;3.82;;;;;;;-0.11;64.71;102418.52;449599;118;922523;-81
2022/12/19 04:02:24;;;;;;;3.64;3.34;;;;;;;-0.12;65.03;102421.33;449716;117;922571;-80
2022/12/19 04:03:30;;;;;;;3.81;3.51;;;;;;;-0.12;65.32;102421.33;449686;118;922928;-81
2022/12/19 04:04:37;;;;;;;3.66;3.46;;;;;;;-0.11;65.34;102425.73;457149;114;922964;-80
2022/12/19 04:05:42;;;;;;;3.48;3.28;;;;;;;-0.11;65.42;102428.42;463171;114;922549;-80
2022/12/19 04:06:48;;;;;;;3.86;3.58;;;;;;;-0.09;65.38;102429.16;463191;114;922663;-80
2022/12/19 04:07:54;;;;;;;3.97;3.67;;;;;;;-0.08;65.49;102442.47;463154;114;923877;-80
2022/12/19 04:08:59;;;;;;;3.72;3.45;;;;;;;-0.06;65.42;102437.02;462877;114;922401;-82
2022/12/19 04:10:05;;;;;;;3.99;3.69;;;;;;;-0.04;65.36;102438.62;449882;117;922860;-83
2022/12/19 04:11:12;;;;;;;3.34;3.08;;;;;;;-0.01;65.30;102435.75;449318;117;922737;-82
2022/12/19 04:12:19;;;;;;;4.19;3.88;;;;;;;0.01;65.09;102435.62;449691;117;922551;-82
2022/12/19 04:13:33;;;;;;;3.92;3.68;;;;;;;0.14;65.11;102444.59;479128;110;946868;-81
2022/12/19 04:14:37;;;;;;;4.15;3.85;;;;;;;0.05;64.97;102442.53;462183;114;922635;-81
2022/12/19 04:16:00;;;;;;;3.88;3.58;;;;;;;0.06;64.89;102444.22;459876;115;922480;-82
2022/12/19 04:17:32;;;;;;;4.13;3.83;;;;;;;0.08;64.82;102444.13;459719;115;930424;-80
2022/12/19 04:18:35;;;;;;;;;;;;;;;0.10;64.81;102445.77;463058;115;922424;-81
2022/12/19 04:20:00;;;;;;;4.14;3.84;;;;;;;0.11;64.79;102455.50;463761;114;922198;-82
2022/12/19 04:21:10;;;;;;;3.83;3.39;;;;;;;0.11;64.54;102460.03;465469;114;922488;-81
2022/12/19 04:22:36;;;;;;;3.56;3.32;;;;;;;0.09;64.68;102462.81;465399;114;922463;-80
2022/12/19 04:23:49;;;;;;;3.27;3.04;;;;;;;0.08;64.64;102458.41;465481;114;922514;-81
2022/12/19 04:24:54;;;;;;;4.07;3.77;;;;;;;0.07;64.53;102459.36;460291;114;922576;-80
2022/12/19 04:26:00;;;;;;;3.99;3.69;;;;;;;0.05;64.29;102463.13;459791;115;922519;-82
2022/12/19 04:27:07;;;;;;;4.24;3.94;;;;;;;0.02;64.30;102466.85;459834;115;923343;-80
2022/12/19 04:28:20;;;;;;;3.84;3.54;;;;;;;0.02;64.29;102468.67;459776;115;922488;-82
2022/12/19 04:29:24;;;;;;;4.19;3.87;;;;;;;0.02;64.31;102472.21;461829;114;922603;-81
2022/12/19 04:30:28;;;;;;;3.65;3.37;;;;;;;0.03;64.30;102484.66;465536;114;922959;-80
2022/12/19 04:31:31;;;;;;;4.08;3.60;;;;;;;0.03;64.29;102473.08;465604;114;922557;-80
2022/12/19 04:32:36;;;;;;;3.71;3.51;;;;;;;0.04;64.05;102485.53;465665;114;922550;-80
2022/12/19 04:33:40;;;;;;;3.76;3.27;;;;;;;0.02;63.96;102479.39;465443;113;923389;-82
2022/12/19 04:34:43;;;;;;;4.20;3.65;;;;;;;-0.01;63.92;102497.42;465359;114;922479;-82
2022/12/19 04:35:46;;;;;;;4.03;3.58;;;;;;;-0.02;63.85;102479.61;456787;116;922946;-80
2022/12/19 04:36:50;;;;;;;3.67;3.38;;;;;;;-0.04;63.81;102489.56;465737;114;922498;-81
2022/12/19 04:37:53;;;;;;;3.63;3.41;;;;;;;-0.05;63.74;102489.66;456662;116;922427;-80
2022/12/19 04:38:57;;;;;;;3.71;3.41;;;;;;;-0.08;63.88;102489.87;465438;113;922546;-82
2022/12/19 04:40:00;;;;;;;3.26;3.06;;;;;;;-0.09;63.93;102493.50;465461;114;923038;-82
2022/12/19 04:41:04;;;;;;;3.66;3.36;;;;;;;-0.10;63.81;102498.00;465609;114;922933;-81
2022/12/19 04:42:07;;;;;;;4.13;3.02;;;;;;;-0.11;63.80;102508.85;465591;114;923493;-82
2022/12/19 04:43:10;;;;;;;3.39;3.19;;;;;;;-0.11;63.81;102504.31;465645;114;923680;-81
2022/12/19 04:44:14;;;;;;;3.44;3.15;;;;;;;-0.13;63.94;102508.94;465119;114;922766;-80
2022/12/19 04:45:17;;;;;;;3.11;2.84;;;;;;;-0.12;64.11;102515.16;464226;114;922548;-82
2022/12/19 04:46:20;;;;;;;3.63;3.30;;;;;;;-0.10;64.00;102519.45;464213;114;925535;-82
2022/12/19 04:47:24;;;;;;;3.51;3.16;;;;;;;-0.09;64.07;102512.27;464281;114;930476;-80
2022/12/19 04:48:27;;;;;;;3.49;3.27;;;;;;;-0.08;63.88;102520.22;464257;114;922569;-81
2022/12/19 04:49:30;;;;;;;2.83;2.62;;;;;;;-0.07;63.75;102521.95;464285;114;922457;-80
2022/12/19 04:50:34;;;;;;;3.56;3.26;;;;;;;-0.07;63.67;102523.77;464262;114;922612;-82
2022/12/19 04:51:37;;;;;;;3.68;3.39;;;;;;;-0.08;63.71;102530.08;464183;114;930619;-82
2022/12/19 04:52:41;;;;;;;3.87;3.37;;;;;;;-0.09;63.47;102523.86;464333;114;922862;-82
2022/12/19 04:53:44;;;;;;;2.59;2.36;;;;;;;-0.08;63.47;102528.27;464306;114;923307;-78
2022/12/19 04:54:47;;;;;;;2.72;2.52;;;;;;;-0.08;63.51;102524.72;465191;114;923089;-82
2022/12/19 04:55:53;;;;;;;2.75;2.55;;;;;;;-0.07;63.36;102534.50;458808;114;922939;-80
2022/12/19 04:56:56;;;;;;;2.87;2.67;;;;;;;-0.07;63.55;102532.67;456806;116;922499;-81
2022/12/19 04:58:03;;;;;;;2.52;2.32;;;;;;;-0.05;63.52;102527.19;457636;116;922556;-79
2022/12/19 04:59:07;;;;;;;2.33;2.14;;;;;;;-0.02;63.36;102537.73;458443;114;922622;-82
2022/12/19 05:00:11;;;;;;;2.55;2.35;;;;;;;-0.02;63.32;102535.05;459926;115;923274;-79
2022/12/19 05:01:14;;;;;;;2.63;2.43;;;;;;;-0.01;63.12;102543.02;459887;115;930342;-81
2022/12/19 05:02:17;;;;;;;2.99;2.16;;;;;;;-0.01;63.07;102547.52;460015;115;922551;-81
2022/12/19 05:03:21;;;;;;;2.69;2.20;;;;;;;-0.01;62.86;102543.02;459910;115;922517;-82
2022/12/19 05:04:24;;;;;;;2.58;2.05;;;;;;;-0.02;62.75;102546.64;462003;114;923667;-81
2022/12/19 05:05:27;;;;;;;2.33;2.12;;;;;;;-0.02;62.70;102543.97;464960;114;922579;-80
2022/12/19 05:06:30;;;;;;;1.96;1.86;;;;;;;-0.01;62.36;102544.83;464916;114;923071;-78
2022/12/19 05:07:34;;;;;;;2.42;2.22;;;;;;;-0.02;62.25;102541.28;464940;114;922506;-80
2022/12/19 05:08:38;;;;;;;2.33;2.13;;;;;;;-0.04;62.16;102545.01;464873;114;922447;-80
2022/12/19 05:09:41;;;;;;;2.58;2.38;;;;;;;-0.05;62.17;102543.28;465060;114;922512;-81
2022/12/19 05:10:44;;;;;;;2.59;2.39;;;;;;;-0.07;62.05;102554.12;465698;114;922545;-81
2022/12/19 05:11:48;;;;;;;2.22;2.08;;;;;;;-0.10;61.80;102559.67;465651;114;922921;-80
2022/12/19 05:12:53;;;;;;;2.11;1.94;;;;;;;-0.13;61.82;102550.97;465667;114;922811;-81